sensor_id;sensor_type;location;lat;lon;timestamp;P1;durP1;ratioP1;P2;durP2;ratioP2
7807;SDS011;3949;49.254;8.894;2024-02-15T00:00:30;7.20;;;5.53;;
7807;SDS011;3949;49.254;8.894;2024-02-15T00:02:57;7.67;;;6.33;;
7807;SDS011;3949;49.254;8.894;2024-02-15T00:05:23;6.63;;;5.77;;
7807;SDS011;3949;49.254;8.894;2024-02-15T00:07:49;9.83;;;7.40;;
7807;SDS011;3949;49.254;8.894;2024-02-15T00:10:15;6.60;;;5.43;;
7807;SDS011;3949;49.254;8.894;2024-02-15T00:12:42;7.10;;;6.40;;
7807;SDS011;3949;49.254;8.894;2024-02-15T00:15:08;7.90;;;6.00;;
7807;SDS011;3949;49.254;8.894;2024-02-15T00:17:34;8.60;;;6.17;;
7807;SDS011;3949;49.254;8.894;2024-02-15T00:20:00;6.40;;;5.60;;
7807;SDS011;3949;49.254;8.894;2024-02-15T00:22:28;6.20;;;5.50;;
7807;SDS011;3949;49.254;8.894;2024-02-15T00:24:54;7.30;;;6.17;;
7807;SDS011;3949;49.254;8.894;2024-02-15T00:27:23;7.10;;;5.27;;
7807;SDS011;3949;49.254;8.894;2024-02-15T00:29:51;6.63;;;4.70;;
7807;SDS011;3949;49.254;8.894;2024-02-15T00:32:20;5.87;;;5.17;;
7807;SDS011;3949;49.254;8.894;2024-02-15T00:34:46;8.53;;;6.80;;
7807;SDS011;3949;49.254;8.894;2024-02-15T00:37:12;8.80;;;6.60;;
7807;SDS011;3949;49.254;8.894;2024-02-15T00:39:41;7.60;;;5.80;;
7807;SDS011;3949;49.254;8.894;2024-02-15T00:42:08;6.50;;;5.53;;
7807;SDS011;3949;49.254;8.894;2024-02-15T00:44:38;5.53;;;5.03;;
7807;SDS011;3949;49.254;8.894;2024-02-15T00:47:05;7.80;;;6.57;;
7807;SDS011;3949;49.254;8.894;2024-02-15T00:49:31;10.70;;;5.83;;
7807;SDS011;3949;49.254;8.894;2024-02-15T00:51:57;7.50;;;5.30;;
7807;SDS011;3949;49.254;8.894;2024-02-15T00:54:23;5.90;;;5.30;;
7807;SDS011;3949;49.254;8.894;2024-02-15T00:56:49;7.27;;;5.33;;
7807;SDS011;3949;49.254;8.894;2024-02-15T00:59:15;6.07;;;4.80;;
7807;SDS011;3949;49.254;8.894;2024-02-15T01:01:41;4.00;;;3.57;;
7807;SDS011;3949;49.254;8.894;2024-02-15T01:04:06;5.10;;;4.57;;
7807;SDS011;3949;49.254;8.894;2024-02-15T01:06:32;4.40;;;4.00;;
7807;SDS011;3949;49.254;8.894;2024-02-15T01:08:59;4.13;;;3.73;;
7807;SDS011;3949;49.254;8.894;2024-02-15T01:11:29;5.47;;;3.30;;
7807;SDS011;3949;49.254;8.894;2024-02-15T01:13:57;4.20;;;3.60;;
7807;SDS011;3949;49.254;8.894;2024-02-15T01:16:24;6.33;;;4.67;;
7807;SDS011;3949;49.254;8.894;2024-02-15T01:18:50;4.57;;;4.13;;
7807;SDS011;3949;49.254;8.894;2024-02-15T01:21:16;4.73;;;3.60;;
7807;SDS011;3949;49.254;8.894;2024-02-15T01:23:42;4.60;;;3.20;;
7807;SDS011;3949;49.254;8.894;2024-02-15T01:26:09;3.77;;;3.07;;
7807;SDS011;3949;49.254;8.894;2024-02-15T01:28:37;3.13;;;2.80;;
7807;SDS011;3949;49.254;8.894;2024-02-15T01:31:03;4.00;;;3.70;;
7807;SDS011;3949;49.254;8.894;2024-02-15T01:33:29;4.43;;;3.27;;
7807;SDS011;3949;49.254;8.894;2024-02-15T01:35:56;4.73;;;2.97;;
7807;SDS011;3949;49.254;8.894;2024-02-15T01:38:22;5.10;;;3.17;;
7807;SDS011;3949;49.254;8.894;2024-02-15T01:40:48;3.43;;;3.13;;
7807;SDS011;3949;49.254;8.894;2024-02-15T01:43:14;7.20;;;3.37;;
7807;SDS011;3949;49.254;8.894;2024-02-15T01:45:40;4.67;;;3.40;;
7807;SDS011;3949;49.254;8.894;2024-02-15T01:48:07;4.60;;;3.40;;
7807;SDS011;3949;49.254;8.894;2024-02-15T01:50:33;3.57;;;3.20;;
7807;SDS011;3949;49.254;8.894;2024-02-15T01:52:59;4.00;;;3.30;;
7807;SDS011;3949;49.254;8.894;2024-02-15T01:55:27;3.27;;;2.97;;
7807;SDS011;3949;49.254;8.894;2024-02-15T01:57:55;4.73;;;3.23;;
7807;SDS011;3949;49.254;8.894;2024-02-15T02:00:21;4.40;;;3.63;;
7807;SDS011;3949;49.254;8.894;2024-02-15T02:02:49;6.57;;;4.27;;
7807;SDS011;3949;49.254;8.894;2024-02-15T02:05:15;6.57;;;4.80;;
7807;SDS011;3949;49.254;8.894;2024-02-15T02:07:41;5.20;;;3.90;;
7807;SDS011;3949;49.254;8.894;2024-02-15T02:10:07;3.87;;;3.37;;
7807;SDS011;3949;49.254;8.894;2024-02-15T02:12:37;4.40;;;3.17;;
7807;SDS011;3949;49.254;8.894;2024-02-15T02:15:04;5.43;;;4.47;;
7807;SDS011;3949;49.254;8.894;2024-02-15T02:17:31;4.10;;;3.33;;
7807;SDS011;3949;49.254;8.894;2024-02-15T02:19:58;4.03;;;3.23;;
7807;SDS011;3949;49.254;8.894;2024-02-15T02:22:26;5.33;;;4.30;;
7807;SDS011;3949;49.254;8.894;2024-02-15T02:25:04;5.00;;;4.33;;
7807;SDS011;3949;49.254;8.894;2024-02-15T02:27:34;5.07;;;4.00;;
7807;SDS011;3949;49.254;8.894;2024-02-15T02:30:13;5.93;;;3.63;;
7807;SDS011;3949;49.254;8.894;2024-02-15T02:32:44;7.23;;;4.87;;
7807;SDS011;3949;49.254;8.894;2024-02-15T02:35:11;9.03;;;5.47;;
7807;SDS011;3949;49.254;8.894;2024-02-15T02:37:37;7.67;;;4.97;;
7807;SDS011;3949;49.254;8.894;2024-02-15T02:40:04;7.63;;;5.13;;
7807;SDS011;3949;49.254;8.894;2024-02-15T02:42:33;7.80;;;4.77;;
7807;SDS011;3949;49.254;8.894;2024-02-15T02:44:59;8.50;;;6.20;;
7807;SDS011;3949;49.254;8.894;2024-02-15T02:47:25;6.70;;;5.10;;
7807;SDS011;3949;49.254;8.894;2024-02-15T02:49:51;16.07;;;11.33;;
7807;SDS011;3949;49.254;8.894;2024-02-15T02:52:17;6.57;;;3.87;;
7807;SDS011;3949;49.254;8.894;2024-02-15T02:54:43;6.13;;;4.43;;
7807;SDS011;3949;49.254;8.894;2024-02-15T02:57:11;6.73;;;4.33;;
7807;SDS011;3949;49.254;8.894;2024-02-15T02:59:39;7.83;;;4.80;;
7807;SDS011;3949;49.254;8.894;2024-02-15T03:02:05;10.07;;;5.57;;
7807;SDS011;3949;49.254;8.894;2024-02-15T03:04:33;11.07;;;5.33;;
7807;SDS011;3949;49.254;8.894;2024-02-15T03:06:59;7.27;;;5.93;;
7807;SDS011;3949;49.254;8.894;2024-02-15T03:09:25;11.40;;;7.00;;
7807;SDS011;3949;49.254;8.894;2024-02-15T03:11:54;12.20;;;8.10;;
7807;SDS011;3949;49.254;8.894;2024-02-15T03:14:22;19.97;;;12.90;;
7807;SDS011;3949;49.254;8.894;2024-02-15T03:16:50;6.67;;;5.23;;
7807;SDS011;3949;49.254;8.894;2024-02-15T03:19:16;5.63;;;4.10;;
7807;SDS011;3949;49.254;8.894;2024-02-15T03:21:42;6.17;;;3.40;;
7807;SDS011;3949;49.254;8.894;2024-02-15T03:24:11;4.87;;;3.10;;
7807;SDS011;3949;49.254;8.894;2024-02-15T03:26:37;3.37;;;2.97;;
7807;SDS011;3949;49.254;8.894;2024-02-15T03:29:05;3.67;;;3.10;;
7807;SDS011;3949;49.254;8.894;2024-02-15T03:31:33;4.90;;;3.03;;
7807;SDS011;3949;49.254;8.894;2024-02-15T03:34:02;4.40;;;2.80;;
7807;SDS011;3949;49.254;8.894;2024-02-15T03:36:28;4.77;;;3.33;;
7807;SDS011;3949;49.254;8.894;2024-02-15T03:38:54;3.80;;;3.00;;
7807;SDS011;3949;49.254;8.894;2024-02-15T03:41:23;4.33;;;2.77;;
7807;SDS011;3949;49.254;8.894;2024-02-15T03:43:49;4.30;;;3.00;;
7807;SDS011;3949;49.254;8.894;2024-02-15T03:46:15;4.27;;;2.80;;
7807;SDS011;3949;49.254;8.894;2024-02-15T03:48:42;4.20;;;2.80;;
7807;SDS011;3949;49.254;8.894;2024-02-15T03:51:15;7.23;;;4.47;;
7807;SDS011;3949;49.254;8.894;2024-02-15T03:53:42;3.93;;;3.53;;
7807;SDS011;3949;49.254;8.894;2024-02-15T03:56:08;6.73;;;5.03;;
7807;SDS011;3949;49.254;8.894;2024-02-15T03:58:34;4.27;;;3.53;;
7807;SDS011;3949;49.254;8.894;2024-02-15T04:01:01;3.37;;;2.70;;
7807;SDS011;3949;49.254;8.894;2024-02-15T04:03:31;3.73;;;2.90;;
7807;SDS011;3949;49.254;8.894;2024-02-15T04:05:58;3.10;;;2.80;;
7807;SDS011;3949;49.254;8.894;2024-02-15T04:08:25;4.00;;;2.80;;
7807;SDS011;3949;49.254;8.894;2024-02-15T04:10:53;5.10;;;2.90;;
7807;SDS011;3949;49.254;8.894;2024-02-15T04:13:19;5.03;;;2.60;;
7807;SDS011;3949;49.254;8.894;2024-02-15T04:15:46;5.67;;;3.20;;
7807;SDS011;3949;49.254;8.894;2024-02-15T04:18:14;4.40;;;2.70;;
7807;SDS011;3949;49.254;8.894;2024-02-15T04:20:40;2.97;;;2.70;;
7807;SDS011;3949;49.254;8.894;2024-02-15T04:23:10;4.63;;;3.27;;
7807;SDS011;3949;49.254;8.894;2024-02-15T04:25:36;3.43;;;3.13;;
7807;SDS011;3949;49.254;8.894;2024-02-15T04:28:02;4.40;;;3.17;;
7807;SDS011;3949;49.254;8.894;2024-02-15T04:30:29;5.70;;;3.30;;
7807;SDS011;3949;49.254;8.894;2024-02-15T04:32:55;6.67;;;3.23;;
7807;SDS011;3949;49.254;8.894;2024-02-15T04:35:21;3.53;;;2.90;;
7807;SDS011;3949;49.254;8.894;2024-02-15T04:37:55;3.83;;;3.10;;
7807;SDS011;3949;49.254;8.894;2024-02-15T04:40:21;3.17;;;2.87;;
7807;SDS011;3949;49.254;8.894;2024-02-15T04:42:49;5.90;;;3.50;;
7807;SDS011;3949;49.254;8.894;2024-02-15T04:45:15;3.97;;;3.00;;
7807;SDS011;3949;49.254;8.894;2024-02-15T04:47:41;6.77;;;3.00;;
7807;SDS011;3949;49.254;8.894;2024-02-15T04:50:11;3.97;;;2.93;;
7807;SDS011;3949;49.254;8.894;2024-02-15T04:52:42;3.00;;;2.60;;
7807;SDS011;3949;49.254;8.894;2024-02-15T04:55:10;11.37;;;7.50;;
7807;SDS011;3949;49.254;8.894;2024-02-15T04:57:36;5.17;;;3.13;;
7807;SDS011;3949;49.254;8.894;2024-02-15T05:00:02;5.53;;;3.13;;
7807;SDS011;3949;49.254;8.894;2024-02-15T05:02:35;5.27;;;3.57;;
7807;SDS011;3949;49.254;8.894;2024-02-15T05:05:05;6.57;;;4.13;;
7807;SDS011;3949;49.254;8.894;2024-02-15T05:07:32;2.97;;;2.73;;
7807;SDS011;3949;49.254;8.894;2024-02-15T05:09:59;4.83;;;3.03;;
7807;SDS011;3949;49.254;8.894;2024-02-15T05:12:25;6.47;;;2.73;;
7807;SDS011;3949;49.254;8.894;2024-02-15T05:14:51;6.23;;;4.57;;
7807;SDS011;3949;49.254;8.894;2024-02-15T05:17:21;7.03;;;3.80;;
7807;SDS011;3949;49.254;8.894;2024-02-15T05:19:49;4.00;;;2.80;;
7807;SDS011;3949;49.254;8.894;2024-02-15T05:22:15;3.70;;;3.33;;
7807;SDS011;3949;49.254;8.894;2024-02-15T05:24:41;2.90;;;2.60;;
7807;SDS011;3949;49.254;8.894;2024-02-15T05:27:10;3.60;;;3.07;;
7807;SDS011;3949;49.254;8.894;2024-02-15T05:29:38;6.13;;;3.20;;
7807;SDS011;3949;49.254;8.894;2024-02-15T05:32:08;3.97;;;2.80;;
7807;SDS011;3949;49.254;8.894;2024-02-15T05:34:36;3.60;;;3.00;;
7807;SDS011;3949;49.254;8.894;2024-02-15T05:37:04;3.60;;;2.57;;
7807;SDS011;3949;49.254;8.894;2024-02-15T05:39:32;3.60;;;2.80;;
7807;SDS011;3949;49.254;8.894;2024-02-15T05:41:57;4.57;;;2.97;;
7807;SDS011;3949;49.254;8.894;2024-02-15T05:44:25;3.70;;;2.90;;
7807;SDS011;3949;49.254;8.894;2024-02-15T05:46:51;4.00;;;2.80;;
7807;SDS011;3949;49.254;8.894;2024-02-15T05:49:18;3.77;;;3.00;;
7807;SDS011;3949;49.254;8.894;2024-02-15T05:51:44;6.43;;;2.60;;
7807;SDS011;3949;49.254;8.894;2024-02-15T05:54:12;5.33;;;2.50;;
7807;SDS011;3949;49.254;8.894;2024-02-15T05:56:38;4.70;;;2.70;;
7807;SDS011;3949;49.254;8.894;2024-02-15T05:59:04;3.33;;;2.63;;
7807;SDS011;3949;49.254;8.894;2024-02-15T06:01:35;2.87;;;2.47;;
7807;SDS011;3949;49.254;8.894;2024-02-15T06:04:01;3.00;;;2.67;;
7807;SDS011;3949;49.254;8.894;2024-02-15T06:06:29;3.90;;;3.10;;
7807;SDS011;3949;49.254;8.894;2024-02-15T06:08:56;6.93;;;4.00;;
7807;SDS011;3949;49.254;8.894;2024-02-15T06:11:24;4.93;;;2.90;;
7807;SDS011;3949;49.254;8.894;2024-02-15T06:13:50;3.70;;;2.80;;
7807;SDS011;3949;49.254;8.894;2024-02-15T06:16:16;5.30;;;3.57;;
7807;SDS011;3949;49.254;8.894;2024-02-15T06:18:43;4.77;;;3.10;;
7807;SDS011;3949;49.254;8.894;2024-02-15T06:21:09;7.23;;;5.00;;
7807;SDS011;3949;49.254;8.894;2024-02-15T06:23:35;5.60;;;3.70;;
7807;SDS011;3949;49.254;8.894;2024-02-15T06:26:02;5.57;;;3.90;;
7807;SDS011;3949;49.254;8.894;2024-02-15T06:28:28;3.37;;;2.60;;
7807;SDS011;3949;49.254;8.894;2024-02-15T06:31:13;4.63;;;2.47;;
7807;SDS011;3949;49.254;8.894;2024-02-15T06:33:58;5.10;;;3.27;;
7807;SDS011;3949;49.254;8.894;2024-02-15T06:36:46;4.47;;;2.57;;
7807;SDS011;3949;49.254;8.894;2024-02-15T06:39:31;4.17;;;2.40;;
7807;SDS011;3949;49.254;8.894;2024-02-15T06:42:03;3.77;;;2.30;;
7807;SDS011;3949;49.254;8.894;2024-02-15T06:44:30;2.90;;;2.50;;
7807;SDS011;3949;49.254;8.894;2024-02-15T06:46:58;4.07;;;2.77;;
7807;SDS011;3949;49.254;8.894;2024-02-15T06:49:24;6.07;;;2.23;;
7807;SDS011;3949;49.254;8.894;2024-02-15T06:51:51;2.70;;;2.40;;
7807;SDS011;3949;49.254;8.894;2024-02-15T06:54:17;2.80;;;2.40;;
7807;SDS011;3949;49.254;8.894;2024-02-15T06:56:45;3.80;;;2.43;;
7807;SDS011;3949;49.254;8.894;2024-02-15T06:59:12;5.33;;;3.07;;
7807;SDS011;3949;49.254;8.894;2024-02-15T07:01:45;4.30;;;2.63;;
7807;SDS011;3949;49.254;8.894;2024-02-15T07:04:11;4.77;;;2.60;;
7807;SDS011;3949;49.254;8.894;2024-02-15T07:06:37;4.30;;;2.43;;
7807;SDS011;3949;49.254;8.894;2024-02-15T07:09:04;2.90;;;2.27;;
7807;SDS011;3949;49.254;8.894;2024-02-15T07:11:32;3.97;;;2.70;;
7807;SDS011;3949;49.254;8.894;2024-02-15T07:13:59;3.17;;;2.10;;
7807;SDS011;3949;49.254;8.894;2024-02-15T07:16:25;5.10;;;2.67;;
7807;SDS011;3949;49.254;8.894;2024-02-15T07:18:51;2.17;;;1.97;;
7807;SDS011;3949;49.254;8.894;2024-02-15T07:21:17;2.50;;;2.30;;
7807;SDS011;3949;49.254;8.894;2024-02-15T07:23:46;3.43;;;2.33;;
7807;SDS011;3949;49.254;8.894;2024-02-15T07:26:12;2.67;;;2.23;;
7807;SDS011;3949;49.254;8.894;2024-02-15T07:28:39;3.33;;;2.70;;
7807;SDS011;3949;49.254;8.894;2024-02-15T07:31:08;3.03;;;2.77;;
7807;SDS011;3949;49.254;8.894;2024-02-15T07:33:34;4.03;;;2.37;;
7807;SDS011;3949;49.254;8.894;2024-02-15T07:36:00;2.70;;;2.40;;
7807;SDS011;3949;49.254;8.894;2024-02-15T07:38:26;3.80;;;2.67;;
7807;SDS011;3949;49.254;8.894;2024-02-15T07:40:52;4.47;;;3.23;;
7807;SDS011;3949;49.254;8.894;2024-02-15T07:43:20;3.77;;;3.20;;
7807;SDS011;3949;49.254;8.894;2024-02-15T07:45:47;5.90;;;3.20;;
7807;SDS011;3949;49.254;8.894;2024-02-15T07:48:14;3.10;;;2.80;;
7807;SDS011;3949;49.254;8.894;2024-02-15T07:50:42;2.80;;;2.53;;
7807;SDS011;3949;49.254;8.894;2024-02-15T07:53:09;3.17;;;2.53;;
7807;SDS011;3949;49.254;8.894;2024-02-15T07:55:36;3.43;;;2.40;;
7807;SDS011;3949;49.254;8.894;2024-02-15T07:58:03;3.00;;;2.47;;
7807;SDS011;3949;49.254;8.894;2024-02-15T08:00:29;2.50;;;2.30;;
7807;SDS011;3949;49.254;8.894;2024-02-15T08:02:55;2.83;;;2.00;;
7807;SDS011;3949;49.254;8.894;2024-02-15T08:05:25;2.23;;;2.03;;
7807;SDS011;3949;49.254;8.894;2024-02-15T08:07:51;2.37;;;1.90;;
7807;SDS011;3949;49.254;8.894;2024-02-15T08:10:22;3.83;;;2.20;;
7807;SDS011;3949;49.254;8.894;2024-02-15T08:12:48;3.03;;;2.10;;
7807;SDS011;3949;49.254;8.894;2024-02-15T08:15:17;3.53;;;2.17;;
7807;SDS011;3949;49.254;8.894;2024-02-15T08:17:46;2.17;;;1.80;;
7807;SDS011;3949;49.254;8.894;2024-02-15T08:20:12;4.53;;;2.07;;
7807;SDS011;3949;49.254;8.894;2024-02-15T08:22:39;2.27;;;1.93;;
7807;SDS011;3949;49.254;8.894;2024-02-15T08:25:09;2.53;;;2.30;;
7807;SDS011;3949;49.254;8.894;2024-02-15T08:27:38;1.93;;;1.70;;
7807;SDS011;3949;49.254;8.894;2024-02-15T08:30:06;2.43;;;1.90;;
7807;SDS011;3949;49.254;8.894;2024-02-15T08:32:34;2.10;;;1.70;;
7807;SDS011;3949;49.254;8.894;2024-02-15T08:35:02;2.63;;;1.90;;
7807;SDS011;3949;49.254;8.894;2024-02-15T08:37:29;2.53;;;2.00;;
7807;SDS011;3949;49.254;8.894;2024-02-15T08:39:57;3.07;;;2.23;;
7807;SDS011;3949;49.254;8.894;2024-02-15T08:42:24;3.07;;;2.20;;
7807;SDS011;3949;49.254;8.894;2024-02-15T08:44:50;2.37;;;1.90;;
7807;SDS011;3949;49.254;8.894;2024-02-15T08:47:16;2.17;;;1.83;;
7807;SDS011;3949;49.254;8.894;2024-02-15T08:49:42;2.07;;;1.87;;
7807;SDS011;3949;49.254;8.894;2024-02-15T08:52:09;2.83;;;2.17;;
7807;SDS011;3949;49.254;8.894;2024-02-15T08:54:35;5.47;;;2.83;;
7807;SDS011;3949;49.254;8.894;2024-02-15T08:57:03;12.17;;;5.67;;
7807;SDS011;3949;49.254;8.894;2024-02-15T08:59:30;18.90;;;8.77;;
7807;SDS011;3949;49.254;8.894;2024-02-15T09:01:56;9.77;;;5.23;;
7807;SDS011;3949;49.254;8.894;2024-02-15T09:04:25;17.43;;;8.33;;
7807;SDS011;3949;49.254;8.894;2024-02-15T09:06:52;30.27;;;12.13;;
7807;SDS011;3949;49.254;8.894;2024-02-15T09:09:18;32.13;;;12.70;;
7807;SDS011;3949;49.254;8.894;2024-02-15T09:11:44;20.63;;;8.83;;
7807;SDS011;3949;49.254;8.894;2024-02-15T09:14:13;19.33;;;9.97;;
7807;SDS011;3949;49.254;8.894;2024-02-15T09:16:39;23.03;;;12.43;;
7807;SDS011;3949;49.254;8.894;2024-02-15T09:19:07;10.50;;;7.47;;
7807;SDS011;3949;49.254;8.894;2024-02-15T09:21:33;6.80;;;4.67;;
7807;SDS011;3949;49.254;8.894;2024-02-15T09:24:02;3.47;;;2.43;;
7807;SDS011;3949;49.254;8.894;2024-02-15T09:26:28;2.73;;;2.07;;
7807;SDS011;3949;49.254;8.894;2024-02-15T09:28:53;9.83;;;7.73;;
7807;SDS011;3949;49.254;8.894;2024-02-15T09:31:19;3.80;;;2.80;;
7807;SDS011;3949;49.254;8.894;2024-02-15T09:33:45;6.40;;;4.40;;
7807;SDS011;3949;49.254;8.894;2024-02-15T09:36:11;8.23;;;7.53;;
7807;SDS011;3949;49.254;8.894;2024-02-15T09:38:38;6.83;;;6.23;;
7807;SDS011;3949;49.254;8.894;2024-02-15T09:41:04;4.30;;;3.90;;
7807;SDS011;3949;49.254;8.894;2024-02-15T09:43:34;4.47;;;4.07;;
7807;SDS011;3949;49.254;8.894;2024-02-15T09:46:00;2.43;;;2.20;;
7807;SDS011;3949;49.254;8.894;2024-02-15T09:48:29;8.67;;;7.83;;
7807;SDS011;3949;49.254;8.894;2024-02-15T09:50:55;2.97;;;2.30;;
7807;SDS011;3949;49.254;8.894;2024-02-15T09:53:22;2.00;;;1.67;;
7807;SDS011;3949;49.254;8.894;2024-02-15T09:55:50;2.50;;;1.63;;
7807;SDS011;3949;49.254;8.894;2024-02-15T09:58:20;2.37;;;1.60;;
7807;SDS011;3949;49.254;8.894;2024-02-15T10:00:48;2.33;;;1.50;;
7807;SDS011;3949;49.254;8.894;2024-02-15T10:03:16;3.33;;;1.50;;
7807;SDS011;3949;49.254;8.894;2024-02-15T10:05:48;4.17;;;1.70;;
7807;SDS011;3949;49.254;8.894;2024-02-15T10:08:17;3.33;;;1.70;;
7807;SDS011;3949;49.254;8.894;2024-02-15T10:10:46;1.80;;;1.50;;
7807;SDS011;3949;49.254;8.894;2024-02-15T10:13:12;1.90;;;1.60;;
7807;SDS011;3949;49.254;8.894;2024-02-15T10:15:39;5.00;;;3.57;;
7807;SDS011;3949;49.254;8.894;2024-02-15T10:18:06;6.23;;;4.07;;
7807;SDS011;3949;49.254;8.894;2024-02-15T10:20:39;3.07;;;1.60;;
7807;SDS011;3949;49.254;8.894;2024-02-15T10:23:12;2.63;;;2.00;;
7807;SDS011;3949;49.254;8.894;2024-02-15T10:25:42;2.20;;;1.70;;
7807;SDS011;3949;49.254;8.894;2024-02-15T10:28:12;1.90;;;1.60;;
7807;SDS011;3949;49.254;8.894;2024-02-15T10:30:43;3.97;;;2.93;;
7807;SDS011;3949;49.254;8.894;2024-02-15T10:33:25;3.30;;;2.40;;
7807;SDS011;3949;49.254;8.894;2024-02-15T10:36:09;2.13;;;1.87;;
7807;SDS011;3949;49.254;8.894;2024-02-15T10:38:39;3.00;;;1.97;;
7807;SDS011;3949;49.254;8.894;2024-02-15T10:41:06;2.67;;;1.73;;
7807;SDS011;3949;49.254;8.894;2024-02-15T10:43:35;2.87;;;1.47;;
7807;SDS011;3949;49.254;8.894;2024-02-15T10:46:04;1.90;;;1.63;;
7807;SDS011;3949;49.254;8.894;2024-02-15T10:48:32;2.23;;;1.90;;
7807;SDS011;3949;49.254;8.894;2024-02-15T10:50:59;2.07;;;1.27;;
7807;SDS011;3949;49.254;8.894;2024-02-15T10:53:30;1.80;;;1.30;;
7807;SDS011;3949;49.254;8.894;2024-02-15T10:58:34;3.47;;;1.33;;
7807;SDS011;3949;49.254;8.894;2024-02-15T11:01:06;1.87;;;1.40;;
7807;SDS011;3949;49.254;8.894;2024-02-15T11:03:35;2.03;;;1.30;;
7807;SDS011;3949;49.254;8.894;2024-02-15T11:06:02;1.97;;;1.30;;
7807;SDS011;3949;49.254;8.894;2024-02-15T11:08:28;1.70;;;1.00;;
7807;SDS011;3949;49.254;8.894;2024-02-15T11:10:54;2.30;;;0.97;;
7807;SDS011;3949;49.254;8.894;2024-02-15T11:13:23;2.73;;;1.27;;
7807;SDS011;3949;49.254;8.894;2024-02-15T11:15:49;2.07;;;1.30;;
7807;SDS011;3949;49.254;8.894;2024-02-15T11:18:51;1.40;;;1.30;;
7807;SDS011;3949;49.254;8.894;2024-02-15T11:21:10;2.57;;;1.50;;
7807;SDS011;3949;49.254;8.894;2024-02-15T11:23:36;4.33;;;1.53;;
7807;SDS011;3949;49.254;8.894;2024-02-15T11:26:03;1.40;;;1.20;;
7807;SDS011;3949;49.254;8.894;2024-02-15T11:30:56;1.90;;;1.17;;
7807;SDS011;3949;49.254;8.894;2024-02-15T11:36:05;2.23;;;1.30;;
7807;SDS011;3949;49.254;8.894;2024-02-15T11:38:31;1.60;;;1.30;;
7807;SDS011;3949;49.254;8.894;2024-02-15T11:40:59;2.60;;;1.30;;
7807;SDS011;3949;49.254;8.894;2024-02-15T11:46:12;1.10;;;0.90;;
7807;SDS011;3949;49.254;8.894;2024-02-15T11:48:39;1.07;;;0.90;;
7807;SDS011;3949;49.254;8.894;2024-02-15T11:51:05;3.00;;;1.33;;
7807;SDS011;3949;49.254;8.894;2024-02-15T11:53:35;3.63;;;1.50;;
7807;SDS011;3949;49.254;8.894;2024-02-15T11:56:03;2.87;;;2.57;;
7807;SDS011;3949;49.254;8.894;2024-02-15T11:58:30;3.73;;;1.50;;
7807;SDS011;3949;49.254;8.894;2024-02-15T12:01:17;1.20;;;1.10;;
7807;SDS011;3949;49.254;8.894;2024-02-15T12:04:02;2.17;;;1.53;;
7807;SDS011;3949;49.254;8.894;2024-02-15T12:06:47;1.20;;;1.10;;
7807;SDS011;3949;49.254;8.894;2024-02-15T12:09:32;3.03;;;1.70;;
7807;SDS011;3949;49.254;8.894;2024-02-15T12:12:16;2.23;;;1.27;;
7807;SDS011;3949;49.254;8.894;2024-02-15T12:15:03;1.87;;;1.13;;
7807;SDS011;3949;49.254;8.894;2024-02-15T12:17:48;1.47;;;1.30;;
7807;SDS011;3949;49.254;8.894;2024-02-15T12:20:32;3.03;;;1.20;;
7807;SDS011;3949;49.254;8.894;2024-02-15T12:22:59;1.00;;;0.87;;
7807;SDS011;3949;49.254;8.894;2024-02-15T12:25:25;3.00;;;1.10;;
7807;SDS011;3949;49.254;8.894;2024-02-15T12:27:58;1.60;;;1.23;;
7807;SDS011;3949;49.254;8.894;2024-02-15T12:30:25;1.37;;;1.00;;
7807;SDS011;3949;49.254;8.894;2024-02-15T12:32:52;2.73;;;1.30;;
7807;SDS011;3949;49.254;8.894;2024-02-15T12:35:19;2.20;;;1.10;;
7807;SDS011;3949;49.254;8.894;2024-02-15T12:37:46;1.30;;;1.10;;
7807;SDS011;3949;49.254;8.894;2024-02-15T12:40:19;1.90;;;1.13;;
7807;SDS011;3949;49.254;8.894;2024-02-15T12:42:47;1.60;;;1.03;;
7807;SDS011;3949;49.254;8.894;2024-02-15T12:47:51;1.77;;;1.00;;
7807;SDS011;3949;49.254;8.894;2024-02-15T12:50:18;3.70;;;1.10;;
7807;SDS011;3949;49.254;8.894;2024-02-15T12:52:48;1.27;;;0.70;;
7807;SDS011;3949;49.254;8.894;2024-02-15T12:55:22;1.37;;;1.07;;
7807;SDS011;3949;49.254;8.894;2024-02-15T12:57:52;2.67;;;1.40;;
7807;SDS011;3949;49.254;8.894;2024-02-15T13:00:19;2.13;;;0.97;;
7807;SDS011;3949;49.254;8.894;2024-02-15T13:02:46;2.17;;;1.33;;
7807;SDS011;3949;49.254;8.894;2024-02-15T13:05:14;2.53;;;1.10;;
7807;SDS011;3949;49.254;8.894;2024-02-15T13:07:40;0.87;;;0.87;;
7807;SDS011;3949;49.254;8.894;2024-02-15T13:10:07;1.90;;;1.20;;
7807;SDS011;3949;49.254;8.894;2024-02-15T13:12:34;2.10;;;1.23;;
7807;SDS011;3949;49.254;8.894;2024-02-15T13:15:01;2.67;;;1.20;;
7807;SDS011;3949;49.254;8.894;2024-02-15T13:17:32;2.57;;;1.40;;
7807;SDS011;3949;49.254;8.894;2024-02-15T13:19:59;3.47;;;1.70;;
7807;SDS011;3949;49.254;8.894;2024-02-15T13:22:32;2.40;;;1.50;;
7807;SDS011;3949;49.254;8.894;2024-02-15T13:24:59;1.90;;;1.40;;
7807;SDS011;3949;49.254;8.894;2024-02-15T13:27:28;3.00;;;1.87;;
7807;SDS011;3949;49.254;8.894;2024-02-15T13:29:54;1.97;;;1.40;;
7807;SDS011;3949;49.254;8.894;2024-02-15T13:32:20;2.70;;;0.80;;
7807;SDS011;3949;49.254;8.894;2024-02-15T13:34:49;1.80;;;1.20;;
7807;SDS011;3949;49.254;8.894;2024-02-15T13:37:17;1.93;;;1.10;;
7807;SDS011;3949;49.254;8.894;2024-02-15T13:39:48;2.70;;;1.10;;
7807;SDS011;3949;49.254;8.894;2024-02-15T13:42:15;2.40;;;1.10;;
7807;SDS011;3949;49.254;8.894;2024-02-15T13:44:42;2.37;;;1.20;;
7807;SDS011;3949;49.254;8.894;2024-02-15T13:47:08;4.47;;;1.20;;
7807;SDS011;3949;49.254;8.894;2024-02-15T13:49:34;2.47;;;1.17;;
7807;SDS011;3949;49.254;8.894;2024-02-15T13:52:00;2.37;;;1.27;;
7807;SDS011;3949;49.254;8.894;2024-02-15T13:54:28;2.10;;;1.10;;
7807;SDS011;3949;49.254;8.894;2024-02-15T13:56:54;2.20;;;1.00;;
7807;SDS011;3949;49.254;8.894;2024-02-15T13:59:21;1.33;;;1.13;;
7807;SDS011;3949;49.254;8.894;2024-02-15T14:01:48;2.93;;;1.40;;
7807;SDS011;3949;49.254;8.894;2024-02-15T14:04:14;3.07;;;1.13;;
7807;SDS011;3949;49.254;8.894;2024-02-15T14:06:41;2.20;;;1.27;;
7807;SDS011;3949;49.254;8.894;2024-02-15T14:09:10;1.47;;;1.07;;
7807;SDS011;3949;49.254;8.894;2024-02-15T14:11:37;1.47;;;1.23;;
7807;SDS011;3949;49.254;8.894;2024-02-15T14:14:03;3.53;;;2.43;;
7807;SDS011;3949;49.254;8.894;2024-02-15T14:16:30;16.93;;;11.63;;
7807;SDS011;3949;49.254;8.894;2024-02-15T14:18:56;3.33;;;2.57;;
7807;SDS011;3949;49.254;8.894;2024-02-15T14:21:22;3.67;;;1.47;;
7807;SDS011;3949;49.254;8.894;2024-02-15T14:23:49;2.73;;;1.83;;
7807;SDS011;3949;49.254;8.894;2024-02-15T14:26:15;10.43;;;8.73;;
7807;SDS011;3949;49.254;8.894;2024-02-15T14:28:42;2.37;;;1.83;;
7807;SDS011;3949;49.254;8.894;2024-02-15T14:31:10;5.63;;;1.90;;
7807;SDS011;3949;49.254;8.894;2024-02-15T14:33:55;2.83;;;1.47;;
7807;SDS011;3949;49.254;8.894;2024-02-15T14:36:21;4.87;;;3.13;;
7807;SDS011;3949;49.254;8.894;2024-02-15T14:38:47;3.20;;;1.30;;
7807;SDS011;3949;49.254;8.894;2024-02-15T14:41:13;1.70;;;1.20;;
7807;SDS011;3949;49.254;8.894;2024-02-15T14:43:39;2.83;;;1.17;;
7807;SDS011;3949;49.254;8.894;2024-02-15T14:46:05;4.13;;;1.33;;
7807;SDS011;3949;49.254;8.894;2024-02-15T14:48:33;1.97;;;1.30;;
7807;SDS011;3949;49.254;8.894;2024-02-15T14:50:59;1.70;;;1.13;;
7807;SDS011;3949;49.254;8.894;2024-02-15T14:53:25;2.20;;;1.43;;
7807;SDS011;3949;49.254;8.894;2024-02-15T14:55:54;3.67;;;1.87;;
7807;SDS011;3949;49.254;8.894;2024-02-15T14:58:20;2.20;;;1.30;;
7807;SDS011;3949;49.254;8.894;2024-02-15T15:00:49;8.40;;;6.80;;
7807;SDS011;3949;49.254;8.894;2024-02-15T15:03:16;2.77;;;1.90;;
7807;SDS011;3949;49.254;8.894;2024-02-15T15:05:44;3.30;;;1.87;;
7807;SDS011;3949;49.254;8.894;2024-02-15T15:08:29;2.87;;;1.87;;
7807;SDS011;3949;49.254;8.894;2024-02-15T15:11:14;2.33;;;1.47;;
7807;SDS011;3949;49.254;8.894;2024-02-15T15:13:58;3.13;;;1.90;;
7807;SDS011;3949;49.254;8.894;2024-02-15T15:16:24;4.83;;;1.87;;
7807;SDS011;3949;49.254;8.894;2024-02-15T15:18:52;2.63;;;2.00;;
7807;SDS011;3949;49.254;8.894;2024-02-15T15:21:19;3.13;;;2.33;;
7807;SDS011;3949;49.254;8.894;2024-02-15T15:23:47;3.73;;;2.00;;
7807;SDS011;3949;49.254;8.894;2024-02-15T15:26:22;3.33;;;2.20;;
7807;SDS011;3949;49.254;8.894;2024-02-15T15:28:48;2.70;;;1.70;;
7807;SDS011;3949;49.254;8.894;2024-02-15T15:31:15;3.30;;;1.50;;
7807;SDS011;3949;49.254;8.894;2024-02-15T15:33:42;2.60;;;1.80;;